createdAt,value
2018-12-31T00:00:18.949Z,98.66
2018-12-31T00:01:19.179Z,98.55
2018-12-31T00:02:18.933Z,98.86
2018-12-31T00:03:19.311Z,98.92
2018-12-31T00:04:18.908Z,99.13
2018-12-31T00:05:18.899Z,99.07
2018-12-31T00:06:18.887Z,98.86
2018-12-31T00:07:19.794Z,98.76
2018-12-31T00:08:18.871Z,98.66
2018-12-31T00:09:18.857Z,98.50
2018-12-31T00:10:19.331Z,98.71
2018-12-31T00:11:18.836Z,99.02
2018-12-31T00:12:18.827Z,98.86
2018-12-31T00:13:18.976Z,99.17
2018-12-31T00:14:18.807Z,98.92
2018-12-31T00:15:18.795Z,98.86
2018-12-31T00:16:18.785Z,99.17
2018-12-31T00:17:19.051Z,98.76
2018-12-31T00:18:18.767Z,98.66
2018-12-31T00:19:18.873Z,98.45
2018-12-31T00:20:18.743Z,98.61
2018-12-31T00:21:18.739Z,98.92
2018-12-31T00:22:18.723Z,98.82
2018-12-31T00:23:18.712Z,98.50
2018-12-31T00:24:19.799Z,98.71
2018-12-31T00:25:18.763Z,98.50
2018-12-31T00:26:18.680Z,98.41
2018-12-31T00:27:18.671Z,98.55
2018-12-31T00:28:18.661Z,98.71
2018-12-31T00:29:18.649Z,98.92
2018-12-31T00:30:18.642Z,99.23
2018-12-31T00:31:18.958Z,98.71
2018-12-31T00:32:18.619Z,98.82
2018-12-31T00:33:18.640Z,98.30
2018-12-31T00:34:18.598Z,98.41
2018-12-31T00:35:18.590Z,99.02
2018-12-31T00:36:18.577Z,98.71
2018-12-31T00:37:19.003Z,98.71
2018-12-31T00:38:18.557Z,98.71
2018-12-31T00:39:18.546Z,98.92
2018-12-31T00:40:18.537Z,98.77
2018-12-31T00:41:18.524Z,98.57
2018-12-31T00:42:18.516Z,98.97
2018-12-31T00:43:18.572Z,98.67
2018-12-31T00:44:18.998Z,98.30
2018-12-31T00:45:18.491Z,98.36
2018-12-31T00:46:18.476Z,98.50
2018-12-31T00:47:18.463Z,98.30
2018-12-31T00:48:18.453Z,98.71
2018-12-31T00:49:18.547Z,98.67
2018-12-31T00:50:18.432Z,98.20
2018-12-31T00:51:18.424Z,98.41
2018-12-31T00:52:18.413Z,98.25
2018-12-31T00:53:18.413Z,98.61
2018-12-31T00:54:18.394Z,97.95
2018-12-31T00:55:18.453Z,98.25
2018-12-31T00:56:18.370Z,98.25
2018-12-31T00:57:18.798Z,98.41
2018-12-31T00:58:18.349Z,98.25
2018-12-31T00:59:18.341Z,98.25
2018-12-31T01:00:18.391Z,98.10
2018-12-31T01:01:18.391Z,98.71
2018-12-31T01:02:18.312Z,98.61
2018-12-31T01:03:18.297Z,98.30
2018-12-31T01:04:18.615Z,98.50
2018-12-31T01:05:18.278Z,98.10
2018-12-31T01:06:18.267Z,98.50
2018-12-31T01:07:18.597Z,98.71
2018-12-31T01:08:18.286Z,98.30
2018-12-31T01:09:18.237Z,98.88
2018-12-31T01:10:18.225Z,98.71
2018-12-31T01:11:18.632Z,98.50
2018-12-31T01:12:18.207Z,99.02
2018-12-31T01:13:18.270Z,99.08
2018-12-31T01:14:18.184Z,99.02
2018-12-31T01:15:18.176Z,99.13
2018-12-31T01:16:18.164Z,98.97
2018-12-31T01:17:18.154Z,99.02
2018-12-31T01:18:19.479Z,98.82
2018-12-31T01:19:18.203Z,98.71
2018-12-31T01:20:18.123Z,99.23
2018-12-31T01:21:18.115Z,99.02
2018-12-31T01:22:18.182Z,98.41
2018-12-31T01:23:18.835Z,98.50
2018-12-31T01:24:18.082Z,98.82
2018-12-31T01:25:18.505Z,98.50
2018-12-31T01:26:18.060Z,98.50
2018-12-31T01:27:18.050Z,98.46
2018-12-31T01:28:18.044Z,98.20
2018-12-31T01:29:18.031Z,98.77
2018-12-31T01:30:18.025Z,98.15
2018-12-31T01:31:18.078Z,98.46
2018-12-31T01:32:18.276Z,98.77
2018-12-31T01:33:17.988Z,99.29
2018-12-31T01:34:17.979Z,98.36
2018-12-31T01:35:17.972Z,98.71
2018-12-31T01:36:17.969Z,98.50
2018-12-31T01:37:18.017Z,98.25
2018-12-31T01:38:17.936Z,98.25
2018-12-31T01:39:18.209Z,98.97
2018-12-31T01:40:17.916Z,99.34
2018-12-31T01:41:17.911Z,99.18
2018-12-31T01:42:17.905Z,98.97
2018-12-31T01:43:17.986Z,98.46
2018-12-31T01:44:17.874Z,98.46
2018-12-31T01:45:17.864Z,98.62
2018-12-31T01:46:18.142Z,98.52
2018-12-31T01:47:17.850Z,98.52
2018-12-31T01:48:18.899Z,98.05
2018-12-31T01:49:17.823Z,98.05
2018-12-31T01:50:17.825Z,98.57
2018-12-31T01:51:17.805Z,98.32
2018-12-31T01:52:17.792Z,98.32
2018-12-31T01:53:18.142Z,98.52
2018-12-31T01:54:17.845Z,98.00
2018-12-31T01:55:17.763Z,98.25
2018-12-31T01:56:17.751Z,98.15
2018-12-31T01:57:17.741Z,98.05
2018-12-31T01:58:17.732Z,98.62
2018-12-31T01:59:17.733Z,98.62
2018-12-31T02:00:18.083Z,98.21
2018-12-31T02:01:17.700Z,98.21
2018-12-31T02:02:17.689Z,98.00
2018-12-31T02:03:17.685Z,98.21
2018-12-31T02:04:17.669Z,98.21
2018-12-31T02:05:17.662Z,98.21
2018-12-31T02:06:17.728Z,98.15
2018-12-31T02:07:17.916Z,98.32
2018-12-31T02:08:17.631Z,98.21
2018-12-31T02:09:17.617Z,98.11
2018-12-31T02:10:17.607Z,98.42
2018-12-31T02:11:17.597Z,98.11
2018-12-31T02:12:17.654Z,98.36
2018-12-31T02:13:17.664Z,98.32
2018-12-31T02:14:18.006Z,98.52
2018-12-31T02:15:17.557Z,98.57
2018-12-31T02:16:17.545Z,98.77
2018-12-31T02:17:17.538Z,98.46
2018-12-31T02:18:17.603Z,98.67
2018-12-31T02:19:17.518Z,98.77
2018-12-31T02:20:17.507Z,98.97
2018-12-31T02:21:17.494Z,98.67
2018-12-31T02:22:17.483Z,98.93
2018-12-31T02:23:17.474Z,99.04
2018-12-31T02:24:17.532Z,98.88
2018-12-31T02:25:17.453Z,98.57
2018-12-31T02:26:17.443Z,98.36
2018-12-31T02:27:17.435Z,98.88
2018-12-31T02:28:17.421Z,98.88
2018-12-31T02:29:17.409Z,98.67
2018-12-31T02:30:17.473Z,99.49
2018-12-31T02:31:17.391Z,99.18
2018-12-31T02:32:17.381Z,99.39
2018-12-31T02:33:17.819Z,99.29
2018-12-31T02:34:17.360Z,99.44
2018-12-31T02:35:17.348Z,99.08
2018-12-31T02:36:17.440Z,99.29
2018-12-31T02:37:17.329Z,98.97
2018-12-31T02:38:17.318Z,98.93
2018-12-31T02:39:17.307Z,98.77
2018-12-31T02:40:17.297Z,98.83
2018-12-31T02:41:17.285Z,99.49
2018-12-31T02:42:17.349Z,99.39
2018-12-31T02:43:17.272Z,99.39
2018-12-31T02:44:17.320Z,99.34
2018-12-31T02:45:17.248Z,99.04
2018-12-31T02:46:17.234Z,99.14
2018-12-31T02:47:17.227Z,98.93
2018-12-31T02:48:17.285Z,98.72
2018-12-31T02:49:17.205Z,99.24
2018-12-31T02:50:17.200Z,99.65
2018-12-31T02:51:17.469Z,99.24
2018-12-31T02:52:17.180Z,98.88
2018-12-31T02:53:17.163Z,99.39
2018-12-31T02:54:17.240Z,99.29
2018-12-31T02:55:17.143Z,99.24
2018-12-31T02:56:17.132Z,99.34
2018-12-31T02:57:17.123Z,99.14
2018-12-31T02:58:17.418Z,98.57
2018-12-31T02:59:17.101Z,99.29
2018-12-31T03:01:33.319Z,99.55
2018-12-31T03:02:33.237Z,99.44
2018-12-31T03:03:33.226Z,99.55
2018-12-31T03:04:33.616Z,99.34
2018-12-31T03:05:33.206Z,99.04
2018-12-31T03:06:33.193Z,99.04
2018-12-31T03:07:33.396Z,99.24
2018-12-31T03:08:33.179Z,99.34
2018-12-31T03:09:33.161Z,99.24
2018-12-31T03:10:33.150Z,99.34
2018-12-31T03:11:33.141Z,99.34
2018-12-31T03:12:33.133Z,99.24
2018-12-31T03:13:34.294Z,99.49
2018-12-31T03:14:33.117Z,98.83
2018-12-31T03:15:33.998Z,99.34
2018-12-31T03:16:33.396Z,99.14
2018-12-31T03:17:33.081Z,98.83
2018-12-31T03:18:33.083Z,98.93
2018-12-31T03:19:33.339Z,98.93
2018-12-31T03:20:33.050Z,99.34
2018-12-31T03:21:33.036Z,99.14
2018-12-31T03:22:34.072Z,99.44
2018-12-31T03:23:33.331Z,99.24
2018-12-31T03:24:33.005Z,98.93
2018-12-31T03:25:33.121Z,99.24
2018-12-31T03:26:32.982Z,99.55
2018-12-31T03:27:33.500Z,99.39
2018-12-31T03:28:33.023Z,99.39
2018-12-31T03:29:32.952Z,98.93
2018-12-31T03:30:33.328Z,98.97
2018-12-31T03:31:33.859Z,99.44
2018-12-31T03:32:32.933Z,99.24
2018-12-31T03:33:32.910Z,99.29
2018-12-31T03:34:32.922Z,99.29
2018-12-31T03:35:32.893Z,99.24
2018-12-31T03:36:32.878Z,99.29
2018-12-31T03:37:33.189Z,99.24
2018-12-31T03:38:32.863Z,99.49
2018-12-31T03:39:32.847Z,98.88
2018-12-31T03:40:32.839Z,99.44
2018-12-31T03:41:32.825Z,99.70
2018-12-31T03:42:32.815Z,99.70
2018-12-31T03:43:32.847Z,98.83
2018-12-31T03:44:33.076Z,99.55
2018-12-31T03:45:32.783Z,99.55
2018-12-31T03:46:32.775Z,99.44
2018-12-31T03:47:32.762Z,99.55
2018-12-31T03:48:32.757Z,99.55
2018-12-31T03:49:32.824Z,99.60
2018-12-31T03:50:32.746Z,99.44
2018-12-31T03:51:33.032Z,99.34
2018-12-31T03:52:32.712Z,99.60
2018-12-31T03:53:32.713Z,99.44
2018-12-31T03:54:32.689Z,99.65
2018-12-31T03:55:32.737Z,99.60
2018-12-31T03:56:32.669Z,99.08
2018-12-31T03:57:32.657Z,99.44
2018-12-31T03:58:32.947Z,99.55
2018-12-31T03:59:32.642Z,99.65
2018-12-31T04:00:32.626Z,99.44
2018-12-31T04:01:32.655Z,99.14
2018-12-31T04:02:32.617Z,99.44
2018-12-31T04:03:32.594Z,99.08
2018-12-31T04:04:32.585Z,99.60
2018-12-31T04:05:32.859Z,99.70
2018-12-31T04:06:32.565Z,99.04
2018-12-31T04:07:33.494Z,99.44
2018-12-31T04:08:32.572Z,99.34
2018-12-31T04:09:32.531Z,99.80
2018-12-31T04:10:32.526Z,99.65
2018-12-31T04:11:32.511Z,99.44
2018-12-31T04:12:32.781Z,99.39
2018-12-31T04:13:32.546Z,99.44
2018-12-31T04:14:32.479Z,98.72
2018-12-31T04:15:32.470Z,99.44
2018-12-31T04:16:32.466Z,99.44
2018-12-31T04:17:32.447Z,99.65
2018-12-31T04:18:32.437Z,99.70
2018-12-31T04:19:32.776Z,99.55
2018-12-31T04:20:32.417Z,99.55
2018-12-31T04:21:32.404Z,99.44
2018-12-31T04:22:32.394Z,99.44
2018-12-31T04:23:32.397Z,99.65
2018-12-31T04:24:32.378Z,98.93
2018-12-31T04:25:32.579Z,99.44
2018-12-31T04:26:32.634Z,99.44
2018-12-31T04:27:32.343Z,99.44
2018-12-31T04:28:32.332Z,99.44
2018-12-31T04:29:32.322Z,98.93
2018-12-31T04:30:32.312Z,98.72
2018-12-31T04:31:32.339Z,98.72
2018-12-31T04:32:32.289Z,98.83
2018-12-31T04:33:32.562Z,99.55
2018-12-31T04:34:32.271Z,98.62
2018-12-31T04:35:32.261Z,99.34
2018-12-31T04:36:32.249Z,99.76
2018-12-31T04:37:32.283Z,99.55
2018-12-31T04:38:32.226Z,98.62
2018-12-31T04:39:32.219Z,99.14
2018-12-31T04:40:32.484Z,99.76
2018-12-31T04:41:32.194Z,98.83
2018-12-31T04:42:32.183Z,98.83
2018-12-31T04:43:32.369Z,98.93
2018-12-31T04:44:32.161Z,98.83
2018-12-31T04:45:32.153Z,99.34
2018-12-31T04:46:32.143Z,98.93
2018-12-31T04:47:32.410Z,99.76
2018-12-31T04:48:32.119Z,99.14
2018-12-31T04:49:32.152Z,99.44
2018-12-31T04:50:32.099Z,99.14
2018-12-31T04:51:32.087Z,99.65
2018-12-31T04:52:32.077Z,99.65
2018-12-31T04:53:32.071Z,99.55
2018-12-31T04:54:32.361Z,99.55
2018-12-31T04:55:32.088Z,99.65
2018-12-31T04:56:32.036Z,99.86
2018-12-31T04:57:32.026Z,99.76
2018-12-31T04:58:32.013Z,99.44
2018-12-31T04:59:32.002Z,99.44
2018-12-31T05:00:31.994Z,99.34
2018-12-31T05:01:32.041Z,99.55
2018-12-31T05:02:31.972Z,99.76
2018-12-31T05:03:31.963Z,99.65
2018-12-31T05:04:31.949Z,99.65
2018-12-31T05:05:31.940Z,99.86
2018-12-31T05:06:32.483Z,99.34
2018-12-31T05:07:32.262Z,99.55
2018-12-31T05:08:31.907Z,99.14
2018-12-31T05:09:31.897Z,99.44
2018-12-31T05:10:31.898Z,98.93
2018-12-31T05:11:31.881Z,98.72
2018-12-31T05:12:31.867Z,98.83
2018-12-31T05:13:31.894Z,99.51
2018-12-31T05:14:32.123Z,99.60
2018-12-31T05:15:31.837Z,98.83
2018-12-31T05:16:31.825Z,99.40
2018-12-31T05:17:31.814Z,99.51
2018-12-31T05:18:31.803Z,99.60
2018-12-31T05:19:32.670Z,99.30
2018-12-31T05:20:31.786Z,99.30
2018-12-31T05:21:31.771Z,99.30
2018-12-31T05:22:31.762Z,99.30
2018-12-31T05:23:31.749Z,99.40
2018-12-31T05:24:31.740Z,99.51
2018-12-31T05:25:31.770Z,99.40
2018-12-31T05:26:31.996Z,99.60
2018-12-31T05:27:31.719Z,99.14
2018-12-31T05:28:31.697Z,99.14
2018-12-31T05:29:31.687Z,98.99
2018-12-31T05:30:31.676Z,99.09
2018-12-31T05:31:31.709Z,99.30
2018-12-31T05:32:31.660Z,99.09
2018-12-31T05:33:32.444Z,99.19
2018-12-31T05:34:31.637Z,99.19
2018-12-31T05:35:31.626Z,99.19
2018-12-31T05:36:31.614Z,99.40
2018-12-31T05:37:31.656Z,99.19
2018-12-31T05:38:31.592Z,99.24
2018-12-31T05:39:31.582Z,99.40
2018-12-31T05:40:31.576Z,99.30
2018-12-31T05:41:31.567Z,99.24
2018-12-31T05:42:31.551Z,99.09
2018-12-31T05:43:31.592Z,99.51
2018-12-31T05:44:31.532Z,98.99
2018-12-31T05:45:31.799Z,98.79
2018-12-31T05:46:31.512Z,99.40
2018-12-31T05:47:31.499Z,98.99
2018-12-31T05:48:31.489Z,98.99
2018-12-31T05:49:31.518Z,98.99
2018-12-31T05:50:31.475Z,98.88
2018-12-31T05:51:31.459Z,98.88
2018-12-31T05:52:31.730Z,98.99
2018-12-31T05:53:31.436Z,99.09
2018-12-31T05:54:31.427Z,99.09
2018-12-31T05:55:31.715Z,98.99
2018-12-31T05:56:31.405Z,99.09
2018-12-31T05:57:31.396Z,99.09
2018-12-31T05:58:31.384Z,99.09
2018-12-31T05:59:31.653Z,99.19
2018-12-31T06:00:31.363Z,99.19
2018-12-31T06:01:31.389Z,99.09
2018-12-31T06:02:31.343Z,99.09
2018-12-31T06:03:31.330Z,99.09
2018-12-31T06:04:31.321Z,99.40
2018-12-31T06:05:31.310Z,98.79
2018-12-31T06:06:31.591Z,99.60
2018-12-31T06:07:31.344Z,99.19
2018-12-31T06:08:31.278Z,99.51
2018-12-31T06:09:31.268Z,99.40
2018-12-31T06:10:31.268Z,98.79
2018-12-31T06:11:31.255Z,99.40
2018-12-31T06:12:31.236Z,99.09
2018-12-31T06:13:31.556Z,98.99
2018-12-31T06:14:31.220Z,98.99
2018-12-31T06:15:31.206Z,99.05
2018-12-31T06:16:31.196Z,98.94
2018-12-31T06:17:31.184Z,99.30
2018-12-31T06:18:31.173Z,98.94
2018-12-31T06:19:31.202Z,99.35
2018-12-31T06:20:31.435Z,99.66
2018-12-31T06:21:31.142Z,99.05
2018-12-31T06:22:31.133Z,99.25
2018-12-31T06:23:31.125Z,98.43
2018-12-31T06:24:31.110Z,98.74
2018-12-31T06:25:31.141Z,98.79
2018-12-31T06:26:31.092Z,98.33
2018-12-31T06:27:31.378Z,98.94
2018-12-31T06:28:31.069Z,98.63
2018-12-31T06:29:31.058Z,98.43
2018-12-31T06:30:31.048Z,98.68
2018-12-31T06:31:31.267Z,98.74
2018-12-31T06:32:31.027Z,98.84
2018-12-31T06:33:31.016Z,98.94
2018-12-31T06:34:31.495Z,98.16
2018-12-31T06:35:30.995Z,98.37
2018-12-31T06:36:30.984Z,98.37
2018-12-31T06:37:31.013Z,98.37
2018-12-31T06:38:30.965Z,98.68
2018-12-31T06:39:30.953Z,99.09
2018-12-31T06:40:30.946Z,99.05
2018-12-31T06:41:30.932Z,99.09
2018-12-31T06:42:30.922Z,99.40
2018-12-31T06:43:30.969Z,98.63
2018-12-31T06:44:30.903Z,99.25
2018-12-31T06:45:30.890Z,98.74
2018-12-31T06:46:30.879Z,98.74
2018-12-31T06:47:31.298Z,98.63
2018-12-31T06:48:30.858Z,99.46
2018-12-31T06:49:31.178Z,98.84
2018-12-31T06:50:30.837Z,99.46
2018-12-31T06:51:30.827Z,98.84
2018-12-31T06:52:30.816Z,99.46
2018-12-31T06:53:30.805Z,99.35
2018-12-31T06:54:31.079Z,98.53
2018-12-31T06:55:30.827Z,99.25
2018-12-31T06:56:30.774Z,98.63
2018-12-31T06:57:30.764Z,99.25
2018-12-31T06:58:30.754Z,99.25
2018-12-31T06:59:30.744Z,98.94
2018-12-31T07:00:30.733Z,98.63
2018-12-31T07:01:30.765Z,98.84
2018-12-31T07:02:30.710Z,98.74
2018-12-31T07:03:30.702Z,99.05
2018-12-31T07:04:30.690Z,98.74
2018-12-31T07:05:30.680Z,98.74
2018-12-31T07:06:30.670Z,99.25
2018-12-31T07:07:31.165Z,98.63
2018-12-31T07:08:30.649Z,98.74
2018-12-31T07:09:30.637Z,99.25
2018-12-31T07:10:30.628Z,99.25
2018-12-31T07:11:30.616Z,99.15
2018-12-31T07:12:30.606Z,98.94
2018-12-31T07:13:30.635Z,98.63
2018-12-31T07:14:30.942Z,99.15
2018-12-31T07:15:30.572Z,98.43
2018-12-31T07:16:30.563Z,98.63
2018-12-31T07:17:30.554Z,99.05
2018-12-31T07:18:30.540Z,98.84
2018-12-31T07:19:30.578Z,99.25
2018-12-31T07:20:30.518Z,99.25
2018-12-31T07:21:30.965Z,99.05
2018-12-31T07:22:30.498Z,99.10
2018-12-31T07:23:30.489Z,99.00
2018-12-31T07:24:30.476Z,99.00
2018-12-31T07:25:30.536Z,99.00
2018-12-31T07:26:30.455Z,99.00
2018-12-31T07:27:30.445Z,98.59
2018-12-31T07:28:30.781Z,99.21
2018-12-31T07:29:30.422Z,98.59
2018-12-31T07:30:30.419Z,98.59
2018-12-31T07:31:30.442Z,98.38
2018-12-31T07:32:30.391Z,98.59
2018-12-31T07:33:30.378Z,98.38
2018-12-31T07:34:30.367Z,98.59
2018-12-31T07:35:30.661Z,98.49
2018-12-31T07:36:30.346Z,98.90
2018-12-31T07:37:32.212Z,98.79
2018-12-31T07:38:30.323Z,99.00
2018-12-31T07:39:30.315Z,98.18
2018-12-31T07:40:30.307Z,98.28
2018-12-31T07:41:30.295Z,97.97
2018-12-31T07:42:30.582Z,97.87
2018-12-31T07:43:30.946Z,98.43
2018-12-31T07:44:30.961Z,98.74
2018-12-31T07:45:30.251Z,98.94
2018-12-31T07:46:30.243Z,98.74
2018-12-31T07:47:30.235Z,98.63
2018-12-31T07:48:30.218Z,98.22
2018-12-31T07:49:30.674Z,98.74
2018-12-31T07:50:30.303Z,98.63
2018-12-31T07:51:30.191Z,99.15
2018-12-31T07:52:30.177Z,99.15
2018-12-31T07:53:30.166Z,99.35
2018-12-31T07:54:30.155Z,98.63
2018-12-31T07:55:30.355Z,99.25
2018-12-31T07:56:30.455Z,99.31
2018-12-31T07:57:30.123Z,98.94
2018-12-31T07:58:30.113Z,99.35
2018-12-31T07:59:30.104Z,99.25
2018-12-31T08:00:30.092Z,98.90
2018-12-31T08:01:30.219Z,98.79
2018-12-31T08:02:30.070Z,98.90
2018-12-31T08:03:30.472Z,99.00
2018-12-31T08:04:30.051Z,99.10
2018-12-31T08:05:30.041Z,99.10
2018-12-31T08:06:30.031Z,99.10
2018-12-31T08:07:30.137Z,99.10
2018-12-31T08:08:30.016Z,99.31
2018-12-31T08:09:29.998Z,98.90
2018-12-31T08:10:33.402Z,99.10
2018-12-31T08:11:30.088Z,99.41
2018-12-31T08:12:29.968Z,99.31
2018-12-31T08:13:30.240Z,99.41
2018-12-31T08:14:29.951Z,98.79
2018-12-31T08:15:29.935Z,99.31
2018-12-31T08:16:29.923Z,99.00
2018-12-31T08:17:30.922Z,98.28
2018-12-31T08:18:29.902Z,98.18
2018-12-31T08:19:30.258Z,98.38
2018-12-31T08:20:29.892Z,98.07
2018-12-31T08:21:29.913Z,98.69
2018-12-31T08:22:29.867Z,98.38
2018-12-31T08:23:30.930Z,98.38
2018-12-31T08:24:30.327Z,98.38
2018-12-31T08:25:29.994Z,98.28
2018-12-31T08:26:30.044Z,98.75
2018-12-31T08:27:29.810Z,98.85
2018-12-31T08:28:29.795Z,98.38
2018-12-31T08:29:29.802Z,98.90
2018-12-31T08:30:30.420Z,98.33
2018-12-31T08:31:30.422Z,98.24
2018-12-31T08:32:29.756Z,98.44
2018-12-31T08:33:29.839Z,98.44
2018-12-31T08:34:30.051Z,98.13
2018-12-31T08:35:29.722Z,97.92
2018-12-31T08:36:29.708Z,98.13
2018-12-31T08:37:31.671Z,97.82
2018-12-31T08:38:29.962Z,97.72
2018-12-31T08:39:29.928Z,98.03
2018-12-31T08:40:29.758Z,98.19
2018-12-31T08:41:29.756Z,98.24
2018-12-31T08:42:29.711Z,97.47
2018-12-31T08:43:30.062Z,97.67
2018-12-31T08:44:29.642Z,97.67
2018-12-31T08:45:29.645Z,97.67
2018-12-31T08:46:29.601Z,97.78
2018-12-31T08:47:29.595Z,97.27
2018-12-31T08:48:29.614Z,97.37
2018-12-31T08:49:30.136Z,97.27
2018-12-31T08:50:29.557Z,97.47
2018-12-31T08:51:29.631Z,97.47
2018-12-31T08:52:29.761Z,97.47
2018-12-31T08:53:29.807Z,97.16
2018-12-31T08:54:29.628Z,97.37
2018-12-31T08:55:30.085Z,97.20
2018-12-31T08:56:29.912Z,97.16
2018-12-31T08:57:29.737Z,97.41
2018-12-31T08:58:29.503Z,97.47
2018-12-31T08:59:29.647Z,97.27
2018-12-31T09:00:29.716Z,97.57
2018-12-31T09:01:29.778Z,97.06
2018-12-31T09:02:29.588Z,97.78
2018-12-31T09:03:29.929Z,97.16
2018-12-31T09:04:29.410Z,97.31
2018-12-31T09:05:29.398Z,97.57
2018-12-31T09:06:29.389Z,97.57
2018-12-31T09:07:29.448Z,97.67
2018-12-31T09:08:29.362Z,97.78
2018-12-31T09:09:29.352Z,97.67
2018-12-31T09:10:29.763Z,97.67
2018-12-31T09:11:29.330Z,97.67
2018-12-31T09:12:29.318Z,97.67
2018-12-31T09:13:29.403Z,97.57
2018-12-31T09:14:29.431Z,97.78
2018-12-31T09:15:29.291Z,97.16
2018-12-31T09:16:29.324Z,97.37
2018-12-31T09:17:30.269Z,97.27
2018-12-31T09:18:29.393Z,97.06
2018-12-31T09:19:29.494Z,97.32
2018-12-31T09:20:29.245Z,97.32
2018-12-31T09:21:29.226Z,97.32
2018-12-31T09:22:29.209Z,97.42
2018-12-31T09:23:29.201Z,97.32
2018-12-31T09:24:29.570Z,96.60
2018-12-31T09:25:29.581Z,96.30
2018-12-31T09:26:29.366Z,96.40
2018-12-31T09:27:29.271Z,96.35
2018-12-31T09:28:29.211Z,95.89
2018-12-31T09:29:29.395Z,95.98
2018-12-31T09:30:29.175Z,95.78
2018-12-31T09:31:29.195Z,96.50
2018-12-31T09:32:29.104Z,96.50
2018-12-31T09:33:29.111Z,96.40
2018-12-31T09:34:29.950Z,96.50
2018-12-31T09:35:29.164Z,96.50
2018-12-31T09:36:29.067Z,96.50
2018-12-31T09:37:29.612Z,96.60
2018-12-31T09:38:29.039Z,96.50
2018-12-31T09:39:29.259Z,96.30
2018-12-31T09:40:29.074Z,96.60
2018-12-31T09:41:29.113Z,96.30
2018-12-31T09:42:30.120Z,96.09
2018-12-31T09:43:29.163Z,96.09
2018-12-31T09:44:29.491Z,96.40
2018-12-31T09:45:30.050Z,97.42
2018-12-31T09:46:29.252Z,96.40
2018-12-31T09:47:28.962Z,97.22
2018-12-31T09:48:29.022Z,97.12
2018-12-31T09:49:29.518Z,97.22
2018-12-31T09:50:29.306Z,96.81
2018-12-31T09:51:29.531Z,97.42
2018-12-31T09:52:29.072Z,97.32
2018-12-31T09:53:29.909Z,97.32
2018-12-31T09:54:29.139Z,97.22
2018-12-31T09:55:29.427Z,97.32
2018-12-31T09:56:29.001Z,97.42
2018-12-31T09:57:29.159Z,97.12
2018-12-31T09:58:29.240Z,97.12
2018-12-31T09:59:29.043Z,96.81
2018-12-31T10:00:28.835Z,96.87
2018-12-31T10:01:29.291Z,97.07
2018-12-31T10:02:28.777Z,96.66
2018-12-31T10:03:28.805Z,96.66
2018-12-31T10:04:28.760Z,96.15
2018-12-31T10:05:29.406Z,96.15
2018-12-31T10:06:28.984Z,96.35
2018-12-31T10:07:30.306Z,96.35
2018-12-31T10:08:29.218Z,96.04
2018-12-31T10:09:28.795Z,96.15
2018-12-31T10:10:28.803Z,96.45
2018-12-31T10:11:28.909Z,96.56
2018-12-31T10:12:29.235Z,96.66
2018-12-31T10:13:29.105Z,97.28
2018-12-31T10:14:28.693Z,97.38
2018-12-31T10:15:29.905Z,96.66
2018-12-31T10:16:30.487Z,96.62
2018-12-31T10:17:28.740Z,96.41
2018-12-31T10:18:28.614Z,96.72
2018-12-31T10:19:29.108Z,96.31
2018-12-31T10:20:28.933Z,95.74
2018-12-31T10:21:28.793Z,95.69
2018-12-31T10:22:28.722Z,96.00
2018-12-31T10:23:28.632Z,96.35
2018-12-31T10:24:28.630Z,96.04
2018-12-31T10:25:29.075Z,96.62
2018-12-31T10:26:29.109Z,96.20
2018-12-31T10:27:28.600Z,96.41
2018-12-31T10:28:29.081Z,96.10
2018-12-31T10:29:35.776Z,96.72
2018-12-31T10:30:29.821Z,96.31
2018-12-31T10:31:29.039Z,96.20
2018-12-31T10:32:28.778Z,96.41
2018-12-31T10:33:29.014Z,96.20
2018-12-31T10:34:29.749Z,96.00
2018-12-31T10:35:29.523Z,96.10
2018-12-31T10:36:28.504Z,95.49
2018-12-31T10:37:28.753Z,95.79
2018-12-31T10:38:28.502Z,95.54
2018-12-31T10:39:28.677Z,95.28
2018-12-31T10:40:28.733Z,95.44
2018-12-31T10:41:28.431Z,95.75
2018-12-31T10:42:28.458Z,95.54
2018-12-31T10:43:28.633Z,95.65
2018-12-31T10:44:28.516Z,95.18
2018-12-31T10:45:28.365Z,95.07
2018-12-31T10:46:28.386Z,94.77
2018-12-31T10:47:29.402Z,94.67
2018-12-31T10:48:28.581Z,95.18
2018-12-31T10:49:28.446Z,94.81
2018-12-31T10:50:28.269Z,95.69
2018-12-31T10:51:28.744Z,94.67
2018-12-31T10:52:28.398Z,95.18
2018-12-31T10:53:28.317Z,94.42
2018-12-31T10:54:28.591Z,94.05
2018-12-31T10:55:28.547Z,94.05
2018-12-31T10:56:28.338Z,94.15
2018-12-31T10:57:28.297Z,94.36
2018-12-31T10:58:28.227Z,94.05
2018-12-31T10:59:28.261Z,94.87
2018-12-31T11:00:28.375Z,94.92
2018-12-31T11:01:28.565Z,94.67
2018-12-31T11:02:28.317Z,94.87
2018-12-31T11:03:28.899Z,94.98
2018-12-31T11:04:28.153Z,94.77
2018-12-31T11:05:30.936Z,94.81
2018-12-31T11:06:28.347Z,94.87
2018-12-31T11:07:28.850Z,95.32
2018-12-31T11:08:28.096Z,95.84
2018-12-31T11:09:31.116Z,95.28
2018-12-31T11:10:29.129Z,95.32
2018-12-31T11:11:28.166Z,95.18
2018-12-31T11:12:29.228Z,94.98
2018-12-31T11:13:29.397Z,95.53
2018-12-31T11:14:31.331Z,95.43
2018-12-31T11:15:27.983Z,95.12
2018-12-31T11:16:31.159Z,95.39
2018-12-31T11:17:28.899Z,94.71
2018-12-31T11:18:28.118Z,94.87
2018-12-31T11:19:28.744Z,94.87
2018-12-31T11:20:27.983Z,94.87
2018-12-31T11:21:28.370Z,95.07
2018-12-31T11:22:27.998Z,94.98
2018-12-31T11:23:28.084Z,94.56
2018-12-31T11:24:28.070Z,95.07
2018-12-31T11:25:28.397Z,95.12
2018-12-31T11:26:27.962Z,94.67
2018-12-31T11:27:28.505Z,95.07
2018-12-31T11:28:28.693Z,94.56
2018-12-31T11:29:27.947Z,94.36
2018-12-31T11:30:27.909Z,94.61
2018-12-31T11:31:30.396Z,94.05
2018-12-31T11:32:28.096Z,94.56
2018-12-31T11:33:27.823Z,94.10
2018-12-31T11:34:28.896Z,94.15
2018-12-31T11:35:28.428Z,94.05
2018-12-31T11:36:27.959Z,94.15
2018-12-31T11:37:34.607Z,93.79
2018-12-31T11:38:28.739Z,93.95
2018-12-31T11:39:27.836Z,93.95
2018-12-31T11:40:28.396Z,94.26
2018-12-31T11:41:28.110Z,94.56
2018-12-31T11:42:28.898Z,94.05
2018-12-31T11:43:28.227Z,94.05
2018-12-31T11:44:27.694Z,93.95
2018-12-31T11:45:27.780Z,93.95
2018-12-31T11:46:27.935Z,93.95
2018-12-31T11:47:27.687Z,94.15
2018-12-31T11:48:27.716Z,93.74
2018-12-31T11:49:28.223Z,94.26
2018-12-31T11:50:27.726Z,94.46
2018-12-31T11:51:27.780Z,94.26
2018-12-31T11:52:27.794Z,94.05
2018-12-31T11:53:27.696Z,93.80
2018-12-31T11:54:27.603Z,94.05
2018-12-31T11:55:27.940Z,93.70
2018-12-31T11:56:27.965Z,93.54
2018-12-31T11:57:27.665Z,93.64
2018-12-31T11:58:27.684Z,93.74
2018-12-31T11:59:27.571Z,94.46
2018-12-31T12:00:27.692Z,94.36
2018-12-31T12:01:28.890Z,94.05
2018-12-31T12:02:28.165Z,94.10
2018-12-31T12:03:29.392Z,94.05
2018-12-31T12:04:28.544Z,94.05
2018-12-31T12:05:27.480Z,94.81
2018-12-31T12:06:27.469Z,94.92
2018-12-31T12:07:27.879Z,94.81
2018-12-31T12:08:27.545Z,94.77
2018-12-31T12:09:27.472Z,94.87
2018-12-31T12:10:28.892Z,94.67
2018-12-31T12:11:27.411Z,94.61
2018-12-31T12:12:27.384Z,94.87
2018-12-31T12:13:27.609Z,94.67
2018-12-31T12:14:27.533Z,94.67
2018-12-31T12:15:27.483Z,94.87
2018-12-31T12:16:27.325Z,94.87
2018-12-31T12:17:27.665Z,94.98
2018-12-31T12:18:27.307Z,94.67
2018-12-31T12:19:27.331Z,94.56
2018-12-31T12:20:27.285Z,94.67
2018-12-31T12:21:27.496Z,94.26
2018-12-31T12:22:27.873Z,94.98
2018-12-31T12:23:27.364Z,94.98
2018-12-31T12:24:27.790Z,94.87
2018-12-31T12:25:27.430Z,94.05
2018-12-31T12:26:27.300Z,94.15
2018-12-31T12:27:27.429Z,93.85
2018-12-31T12:28:27.327Z,94.15
2018-12-31T12:29:27.275Z,94.05
2018-12-31T12:30:27.312Z,94.26
2018-12-31T12:31:27.502Z,94.36
2018-12-31T12:32:27.200Z,94.05
2018-12-31T12:33:27.346Z,93.85
2018-12-31T12:34:27.183Z,94.56
2018-12-31T12:35:27.368Z,94.05
2018-12-31T12:36:27.145Z,94.56
2018-12-31T12:37:27.629Z,94.46
2018-12-31T12:38:49.482Z,94.15
2018-12-31T12:39:28.122Z,94.36
2018-12-31T12:40:27.267Z,94.21
2018-12-31T12:41:28.262Z,93.95
2018-12-31T12:42:29.931Z,94.42
2018-12-31T12:43:27.956Z,94.56
2018-12-31T12:44:27.054Z,94.05
2018-12-31T12:45:42.379Z,94.46
2018-12-31T12:46:27.075Z,94.46
2018-12-31T12:47:27.855Z,93.85
2018-12-31T12:48:27.164Z,94.46
2018-12-31T12:49:27.853Z,94.26
2018-12-31T12:50:27.060Z,94.56
2018-12-31T12:51:27.224Z,94.05
2018-12-31T12:52:28.542Z,94.98
2018-12-31T12:53:28.286Z,94.77